Southeast Iowa Regional Airport
KBRL : now visible

Airfield :











YOU CAN JOIN US ON...

 
LOGIN :

Register | Disclaimer

   EN    FR    IT 

 









Legend :    VFR   Marginal VFR   IFR   Intensive IFR   Very Intensive IFR
Visi :
Ceiling :
>= 8 km
>= 3000ft
5 to 8 km
1000 to 3000 ft
1500m to 5 km
500 to 1000 ft
800 to 1500m
200 to 500 ft
< 800m
< 200 ft
Symbols :   Thunderstorms  Fog  Heavy snow  Heavy precipitations  Wind > 20 kt






- Airport Elevation : 698 ft
- IATA code : BRL


KBRL - Southeast Iowa Regional

CURRENT METAR :
  • 031153Z AUTO 00000KT 5SM BR CLR 15/15 A3012 RMK AO2 SLP198 T01500150 10161 20139 50001

EXPIRED METARs :
  • 031114Z AUTO 36003KT 3SM BR CLR 14/14 A3012 RMK AO2 T01440144
  • 031053Z AUTO 00000KT 2 1/2SM BR CLR 15/15 A3013 RMK AO2 SLP198 T01500150
  • 030953Z AUTO 00000KT 10SM BKN070 16/15 A3012 RMK AO2 SLP197 T01560150

TAF KBRL
Valid from the 03 at 12:00 until the 04 at 12:00 UTC


031120Z 0312/0412 VRB03KT P6SM FEW060
TEMPO 0312/0313 00000KT 5SM BR
KZAU FIR / North America



MET'MAP, your aeronautical weather chart ! - Copyright ORBIFLY December 2007 - Disclaimer

ORBIFLY MET'MAP TEAM :

Programming & Development : Alexandra Zaïnal
Concept & original design : Baudouin d'Aumeries
Assistance for programming : Marc-Olivier Méhu
Technical & hardware support : Manuel Goepfert

Contact : metmap@orbifly.com




SOURCES & CREDITS :

   NOAA       Earth
Advisory